Hlavní strana
METAR-TAF:

METAR-TAF

Letiště :

Piney Island, Severní Karolína, Spojené státy americké

zeměpisná šířka: 35-01-20N, zeměpisná délka: 076-27-45W, výška: 5 m

Aktuální stav počasí

Zpráva byla vytvořena před 37 minutami, v 01:56 UTC
Jihojihozápadní vítr 6 kt
Teplota 23°C
Vlhkost vzduchu 94%
Tlak 1018 hPa
Viditelnost: 16.1 km
Skoro jasno ve výšce 11000 ft
slabý déšť

METAR: KNBT 300156Z AUTO 21006KT 10SM -RA FEW110 23/22 A3005 RMK AO2 RAB32 SLP179 P0002 T02330217 $

Čas: 22:33 (02:33 UTC)


TAF: chybějící

Stav a předpovědi počasí z více než 4 000 letišť (zprávy METAR a TAF).

Červené a žluté tečky na mapě představují dostupné meteorologické stanice.

Když kurzor umístíte na tečku, zobrazí se název stanice.

Pak kliknutím zobrazíte stav a předpověď počasí.

Chcete-li změnit mapu, kliknutím na zelené tlačítko se znaménkem +mapu přiblížíte, kliknutím na zelené tlačítko se znaménkem – mapu oddálíte a kliknutím na zelené šipky přejdete na sousední mapy.


METAR-TAF: